DW2959 Murcia ES current weather conditions

sailwx.info

Wind from 275

Air temperature 13.9° C
Dewpoint 7.4° C

Last reported at 2017-Mar-22 21:41 UTC.
Time now 2017-Mar-22 22:12 UTC

Location: N 38°00' W 001°02'.
View on Google Maps.

See reports from other nearby stations

  
Tides and Currents Weather Stations Pressure Air Temp Water Temp Dewpoint Dewpoint Depression Visibility Wind Speed Wind Dir Waves Ship Positions
date/time (UTC)wind fromknots sea level pressurealtimeterstation pressurevisibilityair tempwater tempwave heightnotes
2017-Mar-22 21:41 275 13.9
2017-Mar-22 21:26 275 13.3
2017-Mar-22 21:11 275 13.3
2017-Mar-22 20:56 275 1 gusting 3 13.9
2017-Mar-22 20:40 240 13.9
2017-Mar-22 20:10 304 15.0
2017-Mar-22 19:54 304 15.6
2017-Mar-22 19:42 316 0 gusting 4 15.6
2017-Mar-22 19:24 175 16.1
2017-Mar-22 19:09 175 16.7
2017-Mar-22 18:54 174 1 gusting 12 16.7
2017-Mar-22 18:39 188 3 gusting 11 17.2
2017-Mar-22 18:24 174 6 gusting 14 17.2
2017-Mar-22 18:09 155 7 gusting 18 17.8
2017-Mar-22 17:54 169 11 gusting 18 17.8
2017-Mar-22 17:39 174 9 gusting 19 17.8
2017-Mar-22 17:23 176 10 gusting 19 18.3
2017-Mar-22 17:09 194 12 gusting 19 18.3
2017-Mar-22 16:53 180 13 gusting 22 18.3
2017-Mar-22 16:38 175 15 gusting 21 18.3
2017-Mar-22 16:23 174 11 gusting 16 18.3
2017-Mar-22 16:08 181 11 gusting 22 18.3
2017-Mar-22 15:53 172 10 gusting 19 18.9
2017-Mar-22 15:38 165 10 gusting 19 19.4
2017-Mar-22 15:23 182 10 gusting 20 20.0
2017-Mar-22 15:07 186 9 gusting 16 20.0
2017-Mar-22 14:52 169 7 gusting 10 20.6
2017-Mar-22 14:37 169 5 gusting 9 20.6
2017-Mar-22 14:22 175 6 gusting 9 21.1
2017-Mar-22 14:07 181 3 gusting 6 21.1
2017-Mar-22 13:51 209 21.1
2017-Mar-22 13:37 212 21.1
2017-Mar-22 13:22 360 0 gusting 6 21.1
2017-Mar-22 13:06 277 5 gusting 9 21.1
2017-Mar-22 12:51 221 21.1
2017-Mar-22 12:35 238 2 gusting 7 20.6
2017-Mar-22 12:21 251 0 gusting 6 21.1
2017-Mar-22 12:06 227 20.6
2017-Mar-22 11:51 308 20.0
2017-Mar-22 11:36 226 19.4
2017-Mar-22 11:21 296 2 gusting 6 20.0
2017-Mar-22 11:06 221 1 gusting 5 19.4
2017-Mar-22 10:51 339 1 gusting 7 18.9
2017-Mar-22 10:35 302 1 gusting 5 18.9
2017-Mar-22 10:21 262 18.9
2017-Mar-22 10:10
2017-Mar-22 09:53 276 5 gusting 10 18.3
2017-Mar-22 09:37 289 3 gusting 7 18.3
2017-Mar-22 09:07 256 2 gusting 6 17.2
2017-Mar-22 08:52 225 4 gusting 7 17.2
2017-Mar-22 08:37 229 3 gusting 7 16.7
2017-Mar-22 08:22 259 1 gusting 6 15.6
2017-Mar-22 08:07 261 0 gusting 6 15.0
2017-Mar-22 07:52 273 1 gusting 5 14.4
2017-Mar-22 07:36 270 3 gusting 7 13.9
2017-Mar-22 07:22 271 3 gusting 6 13.3
2017-Mar-22 07:07 271 2 gusting 6 12.8
2017-Mar-22 06:52 260 0 gusting 6 12.2
2017-Mar-22 06:35 265 2 gusting 6 12.8
2017-Mar-22 06:20 248 0 gusting 4 12.8
2017-Mar-22 06:05 235 12.8
2017-Mar-22 05:54 229 12.2
2017-Mar-22 05:35 224 1 gusting 4 12.2
2017-Mar-22 05:19 215 12.2
2017-Mar-22 05:05 242 12.8
2017-Mar-22 04:50 242 12.8
2017-Mar-22 04:35 232 12.8
2017-Mar-22 04:20 225 0 gusting 5 12.8
2017-Mar-22 04:04 278 12.2
2017-Mar-22 03:49 284 0 gusting 4 12.2
2017-Mar-22 03:34 286 12.2
2017-Mar-22 03:19 286 12.2
2017-Mar-22 03:04 286 12.2
2017-Mar-22 02:48 286 12.2
2017-Mar-22 02:34 286 12.2
2017-Mar-22 02:18 286 12.8
2017-Mar-22 02:03 286 1 gusting 4 12.8
2017-Mar-22 01:48 286 3 gusting 7 12.8
2017-Mar-22 01:35 263 1 gusting 3 13.3
2017-Mar-22 01:18 234 13.3
2017-Mar-22 01:04 247 0 gusting 4 13.3
2017-Mar-22 00:48 269 14.4
2017-Mar-22 00:31 269 1 gusting 5 15.0
2017-Mar-22 00:16 267 3 gusting 9 15.6
2017-Mar-22 00:02 279 6 gusting 13 16.1
2017-Mar-21 23:47 319 6 gusting 13 16.7
2017-Mar-21 23:31 287 6 gusting 13 16.7
2017-Mar-21 23:15 273 5 gusting 10 16.7
2017-Mar-21 23:01 266 5 gusting 14 17.2
2017-Mar-21 22:46 276 7 gusting 13 17.2
2017-Mar-21 22:30 262 6 gusting 11 17.2
2017-Mar-21 22:18 288 6 gusting 12 17.2
2017-Mar-21 22:00 279 4 gusting 10 16.7
2017-Mar-21 21:47 272 2 gusting 7 17.8
2017-Mar-21 21:30 261 4 gusting 10 17.8
2017-Mar-21 21:15 269 7 gusting 14 18.3
2017-Mar-21 20:59 295 4 gusting 13 18.3
2017-Mar-21 20:45 291 6 gusting 17 18.9
2017-Mar-21 20:29 285 11 gusting 19 18.9
2017-Mar-21 20:15 290 6 gusting 11 17.2
2017-Mar-21 19:59 143 16.7
2017-Mar-21 19:44 143 16.7
2017-Mar-21 19:29 048 17.2
2017-Mar-21 19:14 048 17.8
2017-Mar-21 18:59 048 18.3
2017-Mar-21 18:44 090 18.9
2017-Mar-21 18:29 090 19.4
2017-Mar-21 18:14 090 19.4
2017-Mar-21 17:59 074 19.4
2017-Mar-21 17:44 074 19.4
2017-Mar-21 17:28 065 0 gusting 6 19.4
2017-Mar-21 17:14 056 2 gusting 8 20.0
2017-Mar-21 17:02 047 0 gusting 6 20.6
2017-Mar-21 16:43 044 4 gusting 9 20.6
2017-Mar-21 16:27 055 3 gusting 12 21.1
2017-Mar-21 16:13 058 4 gusting 11 22.2
2017-Mar-21 15:57 180 23.9
2017-Mar-21 15:43 182 0 gusting 6 24.4
2017-Mar-21 15:27 158 2 gusting 6 24.4
2017-Mar-21 15:12 182 3 gusting 12 24.4
2017-Mar-21 14:56 192 4 gusting 7 25.0
2017-Mar-21 14:41 186 0 gusting 4 25.6
2017-Mar-21 14:27 190 2 gusting 5 25.6
2017-Mar-21 14:12 225 25.6
2017-Mar-21 13:57 219 0 gusting 5 25.6
2017-Mar-21 13:45 248 2 gusting 6 25.6
2017-Mar-21 13:27 277 1 gusting 6 25.0
2017-Mar-21 13:11 215 25.0
2017-Mar-21 12:55 220 3 gusting 7 25.0
2017-Mar-21 12:40 252 3 gusting 7 25.0
2017-Mar-21 12:25 229 4 gusting 8 24.4
2017-Mar-21 12:10 204 6 gusting 9 24.4
2017-Mar-21 11:54 208 4 gusting 8 23.9
2017-Mar-21 11:40 267 6 gusting 10 23.9
2017-Mar-21 11:24 253 4 gusting 13 23.3
2017-Mar-21 11:10 309 7 gusting 12 23.3
2017-Mar-21 10:54 285 8 gusting 12 22.8
2017-Mar-21 10:39 288 7 gusting 13 22.8
2017-Mar-21 10:23 288 7 gusting 13 22.2
2017-Mar-21 10:08 278 5 gusting 11 22.2
2017-Mar-21 09:53 294 6 gusting 12 21.7
2017-Mar-21 09:38 277 7 gusting 11 21.1
2017-Mar-21 09:24 294 4 gusting 9 21.1
2017-Mar-21 09:08 281 4 gusting 8 20.6
2017-Mar-21 08:52 278 5 gusting 9 20.0
2017-Mar-21 08:38 276 5 gusting 11 19.4
2017-Mar-21 08:22 289 6 gusting 13 18.9
2017-Mar-21 08:07 259 9 gusting 13 18.9
2017-Mar-21 07:52 252 3 gusting 7 17.2
2017-Mar-21 07:37 238 2 gusting 8 16.7
2017-Mar-21 07:22 235 1 gusting 10 15.6
2017-Mar-21 07:07 234 2 gusting 6 14.4
2017-Mar-21 06:52 264 3 gusting 7 14.4
2017-Mar-21 06:37 263 0 gusting 6 14.4
2017-Mar-21 06:20 259 3 gusting 7 13.9
2017-Mar-21 06:07 261 2 gusting 6 13.9
2017-Mar-21 05:51 254 1 gusting 6 13.9
2017-Mar-21 05:35 257 3 gusting 9 13.9
2017-Mar-21 05:20 221 2 gusting 7 12.8
2017-Mar-21 05:04 262 1 gusting 6 12.2
2017-Mar-21 04:50 275 2 gusting 5 11.7
2017-Mar-21 04:35 279 0 gusting 3 11.7
2017-Mar-21 04:20 279 11.7
2017-Mar-21 04:04 299 2 gusting 6 11.7
2017-Mar-21 03:49 298 1 gusting 5 12.2
2017-Mar-21 03:34 267 3 gusting 8 12.8
2017-Mar-21 03:19 285 6 gusting 8 12.2
2017-Mar-21 03:03 285 6 gusting 10 12.8
2017-Mar-21 02:52 273 5 gusting 8 12.8
2017-Mar-21 02:34 275 2 gusting 6 13.3
2017-Mar-21 02:19 266 1 gusting 6 13.3
2017-Mar-21 02:03 249 0 gusting 6 13.3
2017-Mar-21 01:48 233 13.3
2017-Mar-21 01:33 238 1 gusting 6 13.9
2017-Mar-21 01:18 263 3 gusting 6 13.3
2017-Mar-21 01:03 263 0 gusting 6 13.3
2017-Mar-21 00:48 273 12.8
2017-Mar-21 00:32 286 12.8
2017-Mar-21 00:18 286 12.8
2017-Mar-21 00:03 286 13.3
2017-Mar-20 23:46 286 13.9
2017-Mar-20 23:35 286 14.4
2017-Mar-20 23:16 286 14.4
2017-Mar-20 23:00 286 15.0
2017-Mar-20 22:46 286 15.0
2017-Mar-20 22:31 286 15.0
2017-Mar-20 22:16 286 15.0
2017-Mar-20 22:00 286 15.6